Aviation Digital Data Service (ADDS)

Output produced by TAFs form (1409 UTC 26 July 2016)
found at http://aviationweather.gov/adds/tafs/
 
KROW 261122Z 2612/2712 32005KT P6SM -SHRA BKN080 
     FM261500 35005KT P6SM SCT070 BKN120 
     FM261700 02006KT P6SM SCT120 
     FM262100 24007KT P6SM VCSH SCT090 BKN150 
     FM270000 15008KT P6SM VCTS SCT070CB BKN120 
     FM270300 VRB05KT P6SM VCSH BKN100